sensor_id;sensor_type;location;lat;lon;timestamp;P1;durP1;ratioP1;P2;durP2;ratioP2
13122;SDS011;6627;50.920;12.050;2023-03-01T00:01:14;42.80;;;25.70;;
13122;SDS011;6627;50.920;12.050;2023-03-01T00:03:44;41.80;;;26.13;;
13122;SDS011;6627;50.920;12.050;2023-03-01T00:06:12;42.00;;;25.13;;
13122;SDS011;6627;50.920;12.050;2023-03-01T00:08:40;37.47;;;26.00;;
13122;SDS011;6627;50.920;12.050;2023-03-01T00:11:10;38.00;;;24.63;;
13122;SDS011;6627;50.920;12.050;2023-03-01T00:13:42;37.57;;;24.50;;
13122;SDS011;6627;50.920;12.050;2023-03-01T00:16:12;39.80;;;23.63;;
13122;SDS011;6627;50.920;12.050;2023-03-01T00:18:42;39.80;;;23.80;;
13122;SDS011;6627;50.920;12.050;2023-03-01T00:21:10;38.87;;;23.67;;
13122;SDS011;6627;50.920;12.050;2023-03-01T00:23:38;39.37;;;24.77;;
13122;SDS011;6627;50.920;12.050;2023-03-01T00:26:08;41.57;;;24.67;;
13122;SDS011;6627;50.920;12.050;2023-03-01T00:28:39;35.73;;;23.33;;
13122;SDS011;6627;50.920;12.050;2023-03-01T00:31:08;35.77;;;24.33;;
13122;SDS011;6627;50.920;12.050;2023-03-01T00:33:38;38.67;;;24.83;;
13122;SDS011;6627;50.920;12.050;2023-03-01T00:36:05;37.47;;;24.00;;
13122;SDS011;6627;50.920;12.050;2023-03-01T00:38:34;38.77;;;24.63;;
13122;SDS011;6627;50.920;12.050;2023-03-01T00:41:03;39.03;;;24.87;;
13122;SDS011;6627;50.920;12.050;2023-03-01T00:43:32;39.47;;;25.27;;
13122;SDS011;6627;50.920;12.050;2023-03-01T00:46:02;41.37;;;25.63;;
13122;SDS011;6627;50.920;12.050;2023-03-01T00:48:30;40.80;;;25.23;;
13122;SDS011;6627;50.920;12.050;2023-03-01T00:50:57;40.97;;;25.27;;
13122;SDS011;6627;50.920;12.050;2023-03-01T00:53:30;36.57;;;23.50;;
13122;SDS011;6627;50.920;12.050;2023-03-01T00:55:58;43.27;;;25.03;;
13122;SDS011;6627;50.920;12.050;2023-03-01T00:58:25;39.70;;;23.87;;
13122;SDS011;6627;50.920;12.050;2023-03-01T01:00:54;39.53;;;23.87;;
13122;SDS011;6627;50.920;12.050;2023-03-01T01:03:21;37.40;;;22.23;;
13122;SDS011;6627;50.920;12.050;2023-03-01T01:05:50;40.43;;;21.70;;
13122;SDS011;6627;50.920;12.050;2023-03-01T01:08:18;32.50;;;22.33;;
13122;SDS011;6627;50.920;12.050;2023-03-01T01:10:46;37.10;;;22.50;;
13122;SDS011;6627;50.920;12.050;2023-03-01T01:13:14;39.83;;;22.80;;
13122;SDS011;6627;50.920;12.050;2023-03-01T01:15:41;36.07;;;22.63;;
13122;SDS011;6627;50.920;12.050;2023-03-01T01:18:09;35.57;;;22.43;;
13122;SDS011;6627;50.920;12.050;2023-03-01T01:20:36;41.87;;;24.07;;
13122;SDS011;6627;50.920;12.050;2023-03-01T01:23:05;41.17;;;25.27;;
13122;SDS011;6627;50.920;12.050;2023-03-01T01:25:34;45.07;;;24.07;;
13122;SDS011;6627;50.920;12.050;2023-03-01T01:28:02;38.13;;;23.70;;
13122;SDS011;6627;50.920;12.050;2023-03-01T01:30:30;39.23;;;23.77;;
13122;SDS011;6627;50.920;12.050;2023-03-01T01:32:57;37.13;;;23.43;;
13122;SDS011;6627;50.920;12.050;2023-03-01T01:35:25;37.57;;;23.53;;
13122;SDS011;6627;50.920;12.050;2023-03-01T01:37:53;37.47;;;23.83;;
13122;SDS011;6627;50.920;12.050;2023-03-01T01:40:20;37.33;;;23.43;;
13122;SDS011;6627;50.920;12.050;2023-03-01T01:42:48;39.10;;;24.33;;
13122;SDS011;6627;50.920;12.050;2023-03-01T01:45:24;40.93;;;24.07;;
13122;SDS011;6627;50.920;12.050;2023-03-01T01:47:57;38.97;;;23.03;;
13122;SDS011;6627;50.920;12.050;2023-03-01T01:50:32;37.73;;;22.90;;
13122;SDS011;6627;50.920;12.050;2023-03-01T01:53:06;35.33;;;23.07;;
13122;SDS011;6627;50.920;12.050;2023-03-01T01:55:42;39.33;;;24.00;;
13122;SDS011;6627;50.920;12.050;2023-03-01T01:58:15;37.17;;;23.60;;
13122;SDS011;6627;50.920;12.050;2023-03-01T02:00:45;37.97;;;23.57;;
13122;SDS011;6627;50.920;12.050;2023-03-01T02:03:15;40.97;;;23.80;;
13122;SDS011;6627;50.920;12.050;2023-03-01T02:05:51;37.70;;;23.23;;
13122;SDS011;6627;50.920;12.050;2023-03-01T02:08:27;40.10;;;23.67;;
13122;SDS011;6627;50.920;12.050;2023-03-01T02:10:57;43.70;;;25.13;;
13122;SDS011;6627;50.920;12.050;2023-03-01T02:13:29;41.43;;;24.93;;
13122;SDS011;6627;50.920;12.050;2023-03-01T02:15:58;41.47;;;23.77;;
13122;SDS011;6627;50.920;12.050;2023-03-01T02:18:29;39.07;;;23.53;;
13122;SDS011;6627;50.920;12.050;2023-03-01T02:21:01;38.17;;;22.57;;
13122;SDS011;6627;50.920;12.050;2023-03-01T02:23:42;36.63;;;22.33;;
13122;SDS011;6627;50.920;12.050;2023-03-01T02:26:11;44.67;;;25.23;;
13122;SDS011;6627;50.920;12.050;2023-03-01T02:28:48;40.07;;;23.57;;
13122;SDS011;6627;50.920;12.050;2023-03-01T02:31:16;39.47;;;24.07;;
13122;SDS011;6627;50.920;12.050;2023-03-01T02:34:03;39.40;;;23.20;;
13122;SDS011;6627;50.920;12.050;2023-03-01T02:36:34;39.87;;;24.27;;
13122;SDS011;6627;50.920;12.050;2023-03-01T02:39:06;39.60;;;23.90;;
13122;SDS011;6627;50.920;12.050;2023-03-01T02:41:41;41.00;;;25.03;;
13122;SDS011;6627;50.920;12.050;2023-03-01T02:44:15;42.80;;;24.73;;
13122;SDS011;6627;50.920;12.050;2023-03-01T02:46:43;40.47;;;24.17;;
13122;SDS011;6627;50.920;12.050;2023-03-01T02:49:21;40.77;;;24.00;;
13122;SDS011;6627;50.920;12.050;2023-03-01T02:52:00;42.07;;;24.43;;
13122;SDS011;6627;50.920;12.050;2023-03-01T02:54:58;45.77;;;23.63;;
13122;SDS011;6627;50.920;12.050;2023-03-01T02:57:32;40.83;;;24.90;;
13122;SDS011;6627;50.920;12.050;2023-03-01T03:00:04;38.03;;;24.00;;
13122;SDS011;6627;50.920;12.050;2023-03-01T03:02:34;40.23;;;24.07;;
13122;SDS011;6627;50.920;12.050;2023-03-01T03:05:04;45.40;;;26.10;;
13122;SDS011;6627;50.920;12.050;2023-03-01T03:07:36;41.47;;;25.43;;
13122;SDS011;6627;50.920;12.050;2023-03-01T03:10:07;37.00;;;23.67;;
13122;SDS011;6627;50.920;12.050;2023-03-01T03:12:38;38.90;;;24.40;;
13122;SDS011;6627;50.920;12.050;2023-03-01T03:15:08;39.13;;;23.90;;
13122;SDS011;6627;50.920;12.050;2023-03-01T03:17:38;43.27;;;25.73;;
13122;SDS011;6627;50.920;12.050;2023-03-01T03:20:09;45.47;;;25.17;;
13122;SDS011;6627;50.920;12.050;2023-03-01T03:22:44;38.57;;;23.43;;
13122;SDS011;6627;50.920;12.050;2023-03-01T03:25:12;44.33;;;25.17;;
13122;SDS011;6627;50.920;12.050;2023-03-01T03:27:40;47.13;;;26.33;;
13122;SDS011;6627;50.920;12.050;2023-03-01T03:30:12;45.33;;;24.67;;
13122;SDS011;6627;50.920;12.050;2023-03-01T03:32:43;42.27;;;23.40;;
13122;SDS011;6627;50.920;12.050;2023-03-01T03:35:18;47.53;;;26.43;;
13122;SDS011;6627;50.920;12.050;2023-03-01T03:37:46;44.63;;;25.97;;
13122;SDS011;6627;50.920;12.050;2023-03-01T03:40:32;43.30;;;25.63;;
13122;SDS011;6627;50.920;12.050;2023-03-01T03:43:03;40.70;;;24.97;;
13122;SDS011;6627;50.920;12.050;2023-03-01T03:45:34;44.00;;;26.00;;
13122;SDS011;6627;50.920;12.050;2023-03-01T03:48:03;44.17;;;24.73;;
13122;SDS011;6627;50.920;12.050;2023-03-01T03:50:32;39.20;;;24.20;;
13122;SDS011;6627;50.920;12.050;2023-03-01T03:53:00;42.70;;;23.63;;
13122;SDS011;6627;50.920;12.050;2023-03-01T03:55:28;36.90;;;23.30;;
13122;SDS011;6627;50.920;12.050;2023-03-01T03:57:56;38.60;;;25.13;;
13122;SDS011;6627;50.920;12.050;2023-03-01T04:00:27;38.10;;;23.73;;
13122;SDS011;6627;50.920;12.050;2023-03-01T04:02:56;41.80;;;24.90;;
13122;SDS011;6627;50.920;12.050;2023-03-01T04:05:23;36.90;;;23.57;;
13122;SDS011;6627;50.920;12.050;2023-03-01T04:07:51;43.53;;;23.87;;
13122;SDS011;6627;50.920;12.050;2023-03-01T04:10:26;45.00;;;24.43;;
13122;SDS011;6627;50.920;12.050;2023-03-01T04:12:55;40.70;;;25.20;;
13122;SDS011;6627;50.920;12.050;2023-03-01T04:15:23;42.97;;;23.90;;
13122;SDS011;6627;50.920;12.050;2023-03-01T04:17:52;45.37;;;25.40;;
13122;SDS011;6627;50.920;12.050;2023-03-01T04:20:23;38.40;;;22.97;;
13122;SDS011;6627;50.920;12.050;2023-03-01T04:22:56;37.37;;;23.77;;
13122;SDS011;6627;50.920;12.050;2023-03-01T04:25:36;36.07;;;23.13;;
13122;SDS011;6627;50.920;12.050;2023-03-01T04:28:05;36.00;;;22.33;;
13122;SDS011;6627;50.920;12.050;2023-03-01T04:30:33;38.40;;;24.53;;
13122;SDS011;6627;50.920;12.050;2023-03-01T04:33:02;44.60;;;24.97;;
13122;SDS011;6627;50.920;12.050;2023-03-01T04:35:32;38.13;;;22.43;;
13122;SDS011;6627;50.920;12.050;2023-03-01T04:38:00;39.33;;;22.67;;
13122;SDS011;6627;50.920;12.050;2023-03-01T04:40:27;41.83;;;23.10;;
13122;SDS011;6627;50.920;12.050;2023-03-01T04:42:55;39.43;;;22.13;;
13122;SDS011;6627;50.920;12.050;2023-03-01T04:45:22;40.60;;;23.40;;
13122;SDS011;6627;50.920;12.050;2023-03-01T04:47:49;40.77;;;23.77;;
13122;SDS011;6627;50.920;12.050;2023-03-01T04:50:18;39.10;;;23.33;;
13122;SDS011;6627;50.920;12.050;2023-03-01T04:52:50;40.13;;;23.73;;
13122;SDS011;6627;50.920;12.050;2023-03-01T04:55:17;38.67;;;24.47;;
13122;SDS011;6627;50.920;12.050;2023-03-01T04:57:45;57.03;;;32.27;;
13122;SDS011;6627;50.920;12.050;2023-03-01T05:00:13;62.20;;;35.53;;
13122;SDS011;6627;50.920;12.050;2023-03-01T05:02:47;64.07;;;36.37;;
13122;SDS011;6627;50.920;12.050;2023-03-01T05:05:19;67.97;;;37.17;;
13122;SDS011;6627;50.920;12.050;2023-03-01T05:07:52;64.30;;;36.63;;
13122;SDS011;6627;50.920;12.050;2023-03-01T05:10:21;60.57;;;33.67;;
13122;SDS011;6627;50.920;12.050;2023-03-01T05:12:50;48.00;;;27.60;;
13122;SDS011;6627;50.920;12.050;2023-03-01T05:15:18;47.00;;;25.97;;
13122;SDS011;6627;50.920;12.050;2023-03-01T05:17:47;47.20;;;28.33;;
13122;SDS011;6627;50.920;12.050;2023-03-01T05:20:15;43.73;;;26.10;;
13122;SDS011;6627;50.920;12.050;2023-03-01T05:22:42;44.60;;;26.10;;
13122;SDS011;6627;50.920;12.050;2023-03-01T05:25:11;43.10;;;25.10;;
13122;SDS011;6627;50.920;12.050;2023-03-01T05:27:39;42.77;;;26.20;;
13122;SDS011;6627;50.920;12.050;2023-03-01T05:30:07;43.30;;;25.07;;
13122;SDS011;6627;50.920;12.050;2023-03-01T05:32:40;46.33;;;23.73;;
13122;SDS011;6627;50.920;12.050;2023-03-01T05:35:10;44.80;;;25.87;;
13122;SDS011;6627;50.920;12.050;2023-03-01T05:37:40;43.63;;;25.40;;
13122;SDS011;6627;50.920;12.050;2023-03-01T05:40:11;43.40;;;25.83;;
13122;SDS011;6627;50.920;12.050;2023-03-01T05:42:44;45.80;;;25.43;;
13122;SDS011;6627;50.920;12.050;2023-03-01T05:45:14;40.43;;;25.20;;
13122;SDS011;6627;50.920;12.050;2023-03-01T05:47:43;42.67;;;25.47;;
13122;SDS011;6627;50.920;12.050;2023-03-01T05:50:13;48.27;;;26.87;;
13122;SDS011;6627;50.920;12.050;2023-03-01T05:52:45;45.73;;;25.73;;
13122;SDS011;6627;50.920;12.050;2023-03-01T05:55:15;43.77;;;26.10;;
13122;SDS011;6627;50.920;12.050;2023-03-01T05:57:44;46.37;;;25.77;;
13122;SDS011;6627;50.920;12.050;2023-03-01T06:00:12;44.67;;;26.47;;
13122;SDS011;6627;50.920;12.050;2023-03-01T06:02:42;46.43;;;25.43;;
13122;SDS011;6627;50.920;12.050;2023-03-01T06:05:11;44.57;;;25.90;;
13122;SDS011;6627;50.920;12.050;2023-03-01T06:07:41;46.80;;;26.73;;
13122;SDS011;6627;50.920;12.050;2023-03-01T06:10:10;48.13;;;26.67;;
13122;SDS011;6627;50.920;12.050;2023-03-01T06:12:40;42.53;;;25.00;;
13122;SDS011;6627;50.920;12.050;2023-03-01T06:15:09;45.27;;;25.43;;
13122;SDS011;6627;50.920;12.050;2023-03-01T06:17:40;40.70;;;25.60;;
13122;SDS011;6627;50.920;12.050;2023-03-01T06:20:11;40.33;;;25.13;;
13122;SDS011;6627;50.920;12.050;2023-03-01T06:22:41;43.17;;;24.87;;
13122;SDS011;6627;50.920;12.050;2023-03-01T06:25:10;39.87;;;24.40;;
13122;SDS011;6627;50.920;12.050;2023-03-01T06:27:40;42.13;;;24.90;;
13122;SDS011;6627;50.920;12.050;2023-03-01T06:30:09;45.67;;;24.93;;
13122;SDS011;6627;50.920;12.050;2023-03-01T06:32:39;43.57;;;24.40;;
13122;SDS011;6627;50.920;12.050;2023-03-01T06:35:08;40.37;;;24.43;;
13122;SDS011;6627;50.920;12.050;2023-03-01T06:37:37;38.70;;;25.37;;
13122;SDS011;6627;50.920;12.050;2023-03-01T06:40:05;45.37;;;26.00;;
13122;SDS011;6627;50.920;12.050;2023-03-01T06:42:38;46.23;;;25.10;;
13122;SDS011;6627;50.920;12.050;2023-03-01T06:45:09;41.00;;;25.63;;
13122;SDS011;6627;50.920;12.050;2023-03-01T06:47:37;45.77;;;25.50;;
13122;SDS011;6627;50.920;12.050;2023-03-01T06:50:05;44.33;;;25.70;;
13122;SDS011;6627;50.920;12.050;2023-03-01T06:52:33;50.20;;;27.40;;
13122;SDS011;6627;50.920;12.050;2023-03-01T06:55:00;46.53;;;26.07;;
13122;SDS011;6627;50.920;12.050;2023-03-01T06:57:29;44.57;;;27.57;;
13122;SDS011;6627;50.920;12.050;2023-03-01T06:59:57;48.63;;;28.53;;
13122;SDS011;6627;50.920;12.050;2023-03-01T07:02:24;51.00;;;28.77;;
13122;SDS011;6627;50.920;12.050;2023-03-01T07:04:52;53.03;;;30.87;;
13122;SDS011;6627;50.920;12.050;2023-03-01T07:07:19;62.20;;;33.90;;
13122;SDS011;6627;50.920;12.050;2023-03-01T07:09:46;60.73;;;34.27;;
13122;SDS011;6627;50.920;12.050;2023-03-01T07:12:15;61.97;;;35.87;;
13122;SDS011;6627;50.920;12.050;2023-03-01T07:14:43;62.80;;;34.27;;
13122;SDS011;6627;50.920;12.050;2023-03-01T07:17:12;54.40;;;32.70;;
13122;SDS011;6627;50.920;12.050;2023-03-01T07:19:39;60.73;;;31.10;;
13122;SDS011;6627;50.920;12.050;2023-03-01T07:22:06;53.57;;;31.60;;
13122;SDS011;6627;50.920;12.050;2023-03-01T07:24:34;52.07;;;30.87;;
13122;SDS011;6627;50.920;12.050;2023-03-01T07:27:02;53.37;;;31.60;;
13122;SDS011;6627;50.920;12.050;2023-03-01T07:29:29;56.50;;;31.60;;
13122;SDS011;6627;50.920;12.050;2023-03-01T07:31:56;51.47;;;30.47;;
13122;SDS011;6627;50.920;12.050;2023-03-01T07:34:25;49.80;;;30.77;;
13122;SDS011;6627;50.920;12.050;2023-03-01T07:36:52;55.07;;;31.60;;
13122;SDS011;6627;50.920;12.050;2023-03-01T07:39:19;55.00;;;30.67;;
13122;SDS011;6627;50.920;12.050;2023-03-01T07:41:48;52.17;;;31.83;;
13122;SDS011;6627;50.920;12.050;2023-03-01T07:44:15;52.40;;;32.70;;
13122;SDS011;6627;50.920;12.050;2023-03-01T07:46:43;56.40;;;32.00;;
13122;SDS011;6627;50.920;12.050;2023-03-01T07:49:10;57.97;;;32.83;;
13122;SDS011;6627;50.920;12.050;2023-03-01T07:51:39;59.43;;;33.63;;
13122;SDS011;6627;50.920;12.050;2023-03-01T07:54:07;57.33;;;33.67;;
13122;SDS011;6627;50.920;12.050;2023-03-01T07:56:34;49.57;;;32.97;;
13122;SDS011;6627;50.920;12.050;2023-03-01T07:59:02;54.03;;;34.03;;
13122;SDS011;6627;50.920;12.050;2023-03-01T08:01:29;62.90;;;34.40;;
13122;SDS011;6627;50.920;12.050;2023-03-01T08:03:56;60.40;;;35.80;;
13122;SDS011;6627;50.920;12.050;2023-03-01T08:06:23;58.57;;;35.80;;
13122;SDS011;6627;50.920;12.050;2023-03-01T08:08:51;63.23;;;37.47;;
13122;SDS011;6627;50.920;12.050;2023-03-01T08:11:20;61.77;;;35.63;;
13122;SDS011;6627;50.920;12.050;2023-03-01T08:13:48;60.13;;;35.80;;
13122;SDS011;6627;50.920;12.050;2023-03-01T08:16:16;55.67;;;37.20;;
13122;SDS011;6627;50.920;12.050;2023-03-01T08:18:43;64.80;;;36.70;;
13122;SDS011;6627;50.920;12.050;2023-03-01T08:21:11;55.73;;;36.20;;
13122;SDS011;6627;50.920;12.050;2023-03-01T08:23:41;57.37;;;36.73;;
13122;SDS011;6627;50.920;12.050;2023-03-01T08:26:12;57.70;;;36.13;;
13122;SDS011;6627;50.920;12.050;2023-03-01T08:28:42;54.43;;;35.87;;
13122;SDS011;6627;50.920;12.050;2023-03-01T08:31:13;57.30;;;36.30;;
13122;SDS011;6627;50.920;12.050;2023-03-01T08:33:43;51.37;;;34.57;;
13122;SDS011;6627;50.920;12.050;2023-03-01T08:36:15;56.43;;;34.67;;
13122;SDS011;6627;50.920;12.050;2023-03-01T08:38:43;61.37;;;34.00;;
13122;SDS011;6627;50.920;12.050;2023-03-01T08:41:12;49.83;;;33.20;;
13122;SDS011;6627;50.920;12.050;2023-03-01T08:43:40;53.43;;;34.07;;
13122;SDS011;6627;50.920;12.050;2023-03-01T08:46:08;54.47;;;32.57;;
13122;SDS011;6627;50.920;12.050;2023-03-01T08:48:35;52.43;;;32.77;;
13122;SDS011;6627;50.920;12.050;2023-03-01T08:51:09;49.43;;;31.10;;
13122;SDS011;6627;50.920;12.050;2023-03-01T08:53:41;46.00;;;29.67;;
13122;SDS011;6627;50.920;12.050;2023-03-01T08:56:09;47.63;;;30.87;;
13122;SDS011;6627;50.920;12.050;2023-03-01T08:58:38;50.03;;;30.27;;
13122;SDS011;6627;50.920;12.050;2023-03-01T09:01:09;46.73;;;29.17;;
13122;SDS011;6627;50.920;12.050;2023-03-01T09:03:37;35.67;;;23.40;;
13122;SDS011;6627;50.920;12.050;2023-03-01T09:06:05;35.13;;;24.30;;
13122;SDS011;6627;50.920;12.050;2023-03-01T09:08:34;31.50;;;23.43;;
13122;SDS011;6627;50.920;12.050;2023-03-01T09:11:03;37.37;;;23.47;;
13122;SDS011;6627;50.920;12.050;2023-03-01T09:13:32;37.87;;;26.10;;
13122;SDS011;6627;50.920;12.050;2023-03-01T09:16:02;36.27;;;24.70;;
13122;SDS011;6627;50.920;12.050;2023-03-01T09:18:32;31.87;;;22.43;;
13122;SDS011;6627;50.920;12.050;2023-03-01T09:21:02;35.57;;;23.83;;
13122;SDS011;6627;50.920;12.050;2023-03-01T09:23:32;33.33;;;21.67;;
13122;SDS011;6627;50.920;12.050;2023-03-01T09:26:02;28.20;;;20.13;;
13122;SDS011;6627;50.920;12.050;2023-03-01T09:28:29;28.23;;;21.00;;
13122;SDS011;6627;50.920;12.050;2023-03-01T09:30:57;33.90;;;21.27;;
13122;SDS011;6627;50.920;12.050;2023-03-01T09:33:27;32.57;;;20.90;;
13122;SDS011;6627;50.920;12.050;2023-03-01T09:35:56;25.43;;;19.60;;
13122;SDS011;6627;50.920;12.050;2023-03-01T09:38:24;28.27;;;19.87;;
13122;SDS011;6627;50.920;12.050;2023-03-01T09:40:51;30.60;;;20.73;;
13122;SDS011;6627;50.920;12.050;2023-03-01T09:43:20;29.03;;;20.50;;
13122;SDS011;6627;50.920;12.050;2023-03-01T09:45:58;27.83;;;20.83;;
13122;SDS011;6627;50.920;12.050;2023-03-01T09:48:33;28.50;;;20.70;;
13122;SDS011;6627;50.920;12.050;2023-03-01T09:51:14;29.43;;;20.57;;
13122;SDS011;6627;50.920;12.050;2023-03-01T09:53:45;28.90;;;20.33;;
13122;SDS011;6627;50.920;12.050;2023-03-01T09:56:14;25.90;;;20.37;;
13122;SDS011;6627;50.920;12.050;2023-03-01T09:58:47;26.57;;;19.00;;
13122;SDS011;6627;50.920;12.050;2023-03-01T10:01:27;25.83;;;20.03;;
13122;SDS011;6627;50.920;12.050;2023-03-01T10:04:09;32.27;;;19.80;;
13122;SDS011;6627;50.920;12.050;2023-03-01T10:06:51;26.47;;;18.67;;
13122;SDS011;6627;50.920;12.050;2023-03-01T10:09:40;27.60;;;19.53;;
13122;SDS011;6627;50.920;12.050;2023-03-01T10:12:11;26.57;;;18.90;;
13122;SDS011;6627;50.920;12.050;2023-03-01T10:14:44;29.13;;;20.90;;
13122;SDS011;6627;50.920;12.050;2023-03-01T10:17:24;26.63;;;19.47;;
13122;SDS011;6627;50.920;12.050;2023-03-01T10:20:10;25.87;;;20.03;;
13122;SDS011;6627;50.920;12.050;2023-03-01T10:22:45;27.97;;;20.17;;
13122;SDS011;6627;50.920;12.050;2023-03-01T10:25:17;26.30;;;20.03;;
13122;SDS011;6627;50.920;12.050;2023-03-01T10:28:10;26.87;;;18.77;;
13122;SDS011;6627;50.920;12.050;2023-03-01T10:30:46;28.90;;;19.67;;
13122;SDS011;6627;50.920;12.050;2023-03-01T10:33:16;27.23;;;19.53;;
13122;SDS011;6627;50.920;12.050;2023-03-01T10:35:49;31.27;;;21.10;;
13122;SDS011;6627;50.920;12.050;2023-03-01T10:38:17;26.57;;;20.13;;
13122;SDS011;6627;50.920;12.050;2023-03-01T10:40:50;27.27;;;19.93;;
13122;SDS011;6627;50.920;12.050;2023-03-01T10:43:22;28.07;;;19.90;;
13122;SDS011;6627;50.920;12.050;2023-03-01T10:45:50;29.53;;;19.43;;
13122;SDS011;6627;50.920;12.050;2023-03-01T10:48:18;27.13;;;18.57;;
13122;SDS011;6627;50.920;12.050;2023-03-01T10:50:51;28.10;;;19.30;;
13122;SDS011;6627;50.920;12.050;2023-03-01T10:53:33;27.80;;;19.20;;
13122;SDS011;6627;50.920;12.050;2023-03-01T10:56:05;23.43;;;17.20;;
13122;SDS011;6627;50.920;12.050;2023-03-01T10:58:35;28.47;;;18.03;;
13122;SDS011;6627;50.920;12.050;2023-03-01T11:01:04;24.97;;;19.17;;
13122;SDS011;6627;50.920;12.050;2023-03-01T11:04:03;27.03;;;19.10;;
13122;SDS011;6627;50.920;12.050;2023-03-01T11:06:41;24.90;;;18.77;;
13122;SDS011;6627;50.920;12.050;2023-03-01T11:09:13;25.23;;;18.17;;
13122;SDS011;6627;50.920;12.050;2023-03-01T11:11:42;24.30;;;18.43;;
13122;SDS011;6627;50.920;12.050;2023-03-01T11:14:13;22.47;;;17.70;;
13122;SDS011;6627;50.920;12.050;2023-03-01T11:16:45;25.97;;;18.93;;
13122;SDS011;6627;50.920;12.050;2023-03-01T11:19:24;22.80;;;17.20;;
13122;SDS011;6627;50.920;12.050;2023-03-01T11:21:57;23.10;;;16.87;;
13122;SDS011;6627;50.920;12.050;2023-03-01T11:24:31;24.27;;;17.70;;
13122;SDS011;6627;50.920;12.050;2023-03-01T11:27:08;28.53;;;18.20;;
13122;SDS011;6627;50.920;12.050;2023-03-01T11:29:50;25.07;;;18.43;;
13122;SDS011;6627;50.920;12.050;2023-03-01T11:32:23;23.67;;;17.73;;
13122;SDS011;6627;50.920;12.050;2023-03-01T11:34:54;22.77;;;17.80;;
13122;SDS011;6627;50.920;12.050;2023-03-01T11:37:32;22.17;;;17.27;;
13122;SDS011;6627;50.920;12.050;2023-03-01T11:40:07;24.90;;;17.80;;
13122;SDS011;6627;50.920;12.050;2023-03-01T11:43:00;23.50;;;17.03;;
13122;SDS011;6627;50.920;12.050;2023-03-01T11:45:44;30.40;;;18.37;;
13122;SDS011;6627;50.920;12.050;2023-03-01T11:48:36;23.13;;;17.10;;
13122;SDS011;6627;50.920;12.050;2023-03-01T11:51:20;24.93;;;18.63;;
13122;SDS011;6627;50.920;12.050;2023-03-01T11:54:06;24.60;;;17.37;;
13122;SDS011;6627;50.920;12.050;2023-03-01T11:56:48;22.27;;;17.40;;
13122;SDS011;6627;50.920;12.050;2023-03-01T12:02:49;24.97;;;17.93;;
13122;SDS011;6627;50.920;12.050;2023-03-01T12:05:51;23.77;;;18.13;;
13122;SDS011;6627;50.920;12.050;2023-03-01T12:09:02;24.43;;;18.13;;
13122;SDS011;6627;50.920;12.050;2023-03-01T12:12:07;22.20;;;17.73;;
13122;SDS011;6627;50.920;12.050;2023-03-01T12:14:53;27.87;;;18.43;;
13122;SDS011;6627;50.920;12.050;2023-03-01T12:17:48;23.60;;;18.23;;
13122;SDS011;6627;50.920;12.050;2023-03-01T12:20:50;23.00;;;17.67;;
13122;SDS011;6627;50.920;12.050;2023-03-01T12:26:28;23.50;;;18.37;;
13122;SDS011;6627;50.920;12.050;2023-03-01T12:29:18;25.47;;;17.83;;
13122;SDS011;6627;50.920;12.050;2023-03-01T12:32:05;23.13;;;18.10;;
13122;SDS011;6627;50.920;12.050;2023-03-01T12:35:04;25.00;;;17.87;;
13122;SDS011;6627;50.920;12.050;2023-03-01T12:37:54;23.13;;;18.17;;
13122;SDS011;6627;50.920;12.050;2023-03-01T12:40:34;24.57;;;18.07;;
13122;SDS011;6627;50.920;12.050;2023-03-01T12:43:33;23.27;;;17.73;;
13122;SDS011;6627;50.920;12.050;2023-03-01T12:46:21;21.13;;;17.27;;
13122;SDS011;6627;50.920;12.050;2023-03-01T12:49:02;25.77;;;19.23;;
13122;SDS011;6627;50.920;12.050;2023-03-01T12:51:39;26.03;;;17.97;;
13122;SDS011;6627;50.920;12.050;2023-03-01T12:54:25;27.07;;;18.93;;
13122;SDS011;6627;50.920;12.050;2023-03-01T12:56:56;24.10;;;18.30;;
13122;SDS011;6627;50.920;12.050;2023-03-01T12:59:36;22.83;;;17.87;;
13122;SDS011;6627;50.920;12.050;2023-03-01T13:02:13;24.67;;;18.00;;
13122;SDS011;6627;50.920;12.050;2023-03-01T13:04:55;23.63;;;17.90;;
13122;SDS011;6627;50.920;12.050;2023-03-01T13:07:48;21.20;;;16.87;;
13122;SDS011;6627;50.920;12.050;2023-03-01T13:10:29;21.13;;;16.63;;
13122;SDS011;6627;50.920;12.050;2023-03-01T13:13:11;21.90;;;17.40;;
13122;SDS011;6627;50.920;12.050;2023-03-01T13:15:46;22.40;;;16.77;;
13122;SDS011;6627;50.920;12.050;2023-03-01T13:18:29;20.50;;;14.97;;
13122;SDS011;6627;50.920;12.050;2023-03-01T13:20:59;18.83;;;15.57;;
13122;SDS011;6627;50.920;12.050;2023-03-01T13:23:31;19.00;;;15.20;;
13122;SDS011;6627;50.920;12.050;2023-03-01T13:26:05;19.27;;;15.07;;
13122;SDS011;6627;50.920;12.050;2023-03-01T13:34:39;19.53;;;15.30;;
13122;SDS011;6627;50.920;12.050;2023-03-01T13:37:23;18.50;;;14.17;;
13122;SDS011;6627;50.920;12.050;2023-03-01T13:39:55;18.80;;;14.37;;
13122;SDS011;6627;50.920;12.050;2023-03-01T13:42:34;20.13;;;15.00;;
13122;SDS011;6627;50.920;12.050;2023-03-01T13:45:17;18.77;;;14.07;;
13122;SDS011;6627;50.920;12.050;2023-03-01T13:47:58;20.33;;;14.80;;
13122;SDS011;6627;50.920;12.050;2023-03-01T13:50:33;19.83;;;14.20;;
13122;SDS011;6627;50.920;12.050;2023-03-01T13:53:14;20.97;;;14.00;;
13122;SDS011;6627;50.920;12.050;2023-03-01T13:55:46;19.33;;;14.57;;
13122;SDS011;6627;50.920;12.050;2023-03-01T13:58:21;21.17;;;14.93;;
13122;SDS011;6627;50.920;12.050;2023-03-01T14:00:55;19.57;;;14.30;;
13122;SDS011;6627;50.920;12.050;2023-03-01T14:03:26;19.87;;;15.03;;
13122;SDS011;6627;50.920;12.050;2023-03-01T14:05:58;19.47;;;15.23;;
13122;SDS011;6627;50.920;12.050;2023-03-01T14:08:33;20.50;;;14.43;;
13122;SDS011;6627;50.920;12.050;2023-03-01T14:11:08;20.27;;;14.93;;
13122;SDS011;6627;50.920;12.050;2023-03-01T14:14:12;17.47;;;13.70;;
13122;SDS011;6627;50.920;12.050;2023-03-01T14:17:13;18.37;;;14.00;;
13122;SDS011;6627;50.920;12.050;2023-03-01T14:20:08;20.60;;;14.47;;
13122;SDS011;6627;50.920;12.050;2023-03-01T14:22:43;21.07;;;14.90;;
13122;SDS011;6627;50.920;12.050;2023-03-01T14:25:23;19.63;;;16.07;;
13122;SDS011;6627;50.920;12.050;2023-03-01T14:27:59;20.53;;;15.27;;
13122;SDS011;6627;50.920;12.050;2023-03-01T14:30:31;19.33;;;14.87;;
13122;SDS011;6627;50.920;12.050;2023-03-01T14:33:05;20.90;;;15.67;;
13122;SDS011;6627;50.920;12.050;2023-03-01T14:35:53;19.73;;;14.33;;
13122;SDS011;6627;50.920;12.050;2023-03-01T14:38:28;22.50;;;16.37;;
13122;SDS011;6627;50.920;12.050;2023-03-01T14:41:03;20.43;;;15.30;;
13122;SDS011;6627;50.920;12.050;2023-03-01T14:43:35;22.10;;;16.10;;
13122;SDS011;6627;50.920;12.050;2023-03-01T14:46:05;19.90;;;14.90;;
13122;SDS011;6627;50.920;12.050;2023-03-01T14:48:32;21.77;;;16.80;;
13122;SDS011;6627;50.920;12.050;2023-03-01T14:51:01;21.97;;;15.50;;
13122;SDS011;6627;50.920;12.050;2023-03-01T14:53:32;22.70;;;15.97;;
13122;SDS011;6627;50.920;12.050;2023-03-01T14:55:59;21.03;;;16.80;;
13122;SDS011;6627;50.920;12.050;2023-03-01T14:58:28;19.80;;;15.07;;
13122;SDS011;6627;50.920;12.050;2023-03-01T15:00:59;22.43;;;16.07;;
13122;SDS011;6627;50.920;12.050;2023-03-01T15:03:30;19.53;;;15.50;;
13122;SDS011;6627;50.920;12.050;2023-03-01T15:06:04;20.30;;;15.30;;